Time;durP1;ratioP1;P1;durP2;ratioP2;P2;SDS_P1;SDS_P2;PMS_P1;PMS_P2;Temp;Humidity;BMP_temperature;BMP_pressure;BME280_temperature;BME280_humidity;BME280_pressure;Samples;Min_cycle;Max_cycle;Signal;HPM_P1;HPM_P2
2020/12/20 00:02:05;;;;;;;9.43;5.50;;;9.10;99.90;;;;;;5018438;28;20028;-61
2020/12/20 00:04:31;;;;;;;10.70;5.03;;;9.10;99.90;;;;;;5009736;28;20038;-62
2020/12/20 00:06:57;;;;;;;10.93;5.40;;;9.10;99.90;;;;;;5013605;28;20112;-62
2020/12/20 00:09:22;;;;;;;7.55;5.40;;;9.10;99.90;;;;;;5005852;28;20076;-64
2020/12/20 00:11:51;;;;;;;10.63;5.53;;;9.10;99.90;;;;;;5015249;28;20097;-61
2020/12/20 00:14:30;;;;;;;9.05;5.75;;;9.10;99.90;;;;;;4992922;28;20053;-62
2020/12/20 00:16:59;;;;;;;10.95;5.88;;;9.00;99.90;;;;;;5014792;28;20064;-61
2020/12/20 00:19:24;;;;;;;7.43;5.45;;;9.00;99.90;;;;;;5017207;28;20038;-60
2020/12/20 00:21:55;;;;;;;6.88;5.18;;;9.00;99.90;;;;;;5015725;28;20103;-60
2020/12/20 00:24:21;;;;;;;11.25;5.75;;;9.00;99.90;;;;;;5015601;28;20056;-59
2020/12/20 00:26:47;;;;;;;9.52;5.75;;;9.00;99.90;;;;;;5016916;28;20025;-61
2020/12/20 00:29:12;;;;;;;10.85;5.88;;;9.00;99.90;;;;;;5012829;28;20037;-63
2020/12/20 00:31:38;;;;;;;11.32;5.80;;;9.00;99.90;;;;;;5013173;28;20068;-62
2020/12/20 00:34:05;;;;;;;8.23;5.70;;;9.00;99.90;;;;;;5018841;28;20021;-63
2020/12/20 00:36:31;;;;;;;9.20;5.35;;;9.00;99.90;;;;;;5013154;28;20056;-63
2020/12/20 00:38:56;;;;;;;11.55;5.78;;;9.00;99.90;;;;;;5015475;28;20034;-60
2020/12/20 00:41:22;;;;;;;13.52;5.30;;;9.00;99.90;;;;;;5013062;28;20132;-62
2020/12/20 00:43:48;;;;;;;7.95;4.60;;;9.00;99.90;;;;;;5017652;28;20128;-62
2020/12/20 00:46:13;;;;;;;8.23;5.10;;;9.00;99.90;;;;;;5019241;28;20036;-61
2020/12/20 00:48:39;;;;;;;9.50;5.80;;;9.00;99.90;;;;;;5023374;28;20479;-62
2020/12/20 00:51:06;;;;;;;9.82;6.20;;;9.00;99.90;;;;;;5022461;28;20104;-62
2020/12/20 00:53:32;;;;;;;9.05;5.97;;;9.00;99.90;;;;;;5019158;28;20033;-64
2020/12/20 00:55:58;;;;;;;7.38;5.10;;;9.00;99.90;;;;;;5020546;28;20522;-62
2020/12/20 00:58:24;;;;;;;9.70;5.03;;;9.00;99.90;;;;;;5013224;28;20037;-62
2020/12/20 01:00:50;;;;;;;10.35;5.35;;;9.00;99.90;;;;;;5021060;28;20030;-62
2020/12/20 01:03:17;;;;;;;12.40;6.05;;;9.00;99.90;;;;;;5020851;28;20052;-61
2020/12/20 01:05:43;;;;;;;9.98;5.95;;;9.10;99.90;;;;;;5017389;28;20034;-61
2020/12/20 01:08:09;;;;;;;11.13;5.82;;;9.10;99.90;;;;;;5018058;28;20037;-62
2020/12/20 01:10:38;;;;;;;10.95;6.45;;;9.10;99.90;;;;;;5019567;28;20029;-60
2020/12/20 01:13:04;;;;;;;9.45;4.93;;;9.10;99.90;;;;;;5003566;28;20069;-61
2020/12/20 01:15:30;;;;;;;10.45;5.50;;;9.10;99.90;;;;;;5020635;28;20088;-61
2020/12/20 01:17:56;;;;;;;9.77;5.97;;;9.10;99.90;;;;;;5019821;28;20030;-62
2020/12/20 01:20:23;;;;;;;9.93;5.32;;;9.10;99.90;;;;;;5021931;28;20026;-62
2020/12/20 01:22:49;;;;;;;11.90;6.45;;;9.10;99.90;;;;;;5016914;28;20029;-63
2020/12/20 01:25:15;;;;;;;12.73;5.28;;;9.10;99.90;;;;;;5021679;28;20107;-60
2020/12/20 01:27:41;;;;;;;9.43;4.80;;;9.10;99.90;;;;;;5016980;28;20109;-62
2020/12/20 01:30:06;;;;;;;8.90;5.70;;;9.20;99.90;;;;;;5035416;28;20545;-62
2020/12/20 01:32:32;;;;;;;8.23;5.40;;;9.20;99.90;;;;;;5024742;28;20017;-61
2020/12/20 01:34:58;;;;;;;9.05;5.88;;;9.20;99.90;;;;;;5016662;28;20554;-60
2020/12/20 01:37:23;;;;;;;8.68;4.95;;;9.10;99.90;;;;;;5015443;28;20058;-61
2020/12/20 01:39:49;;;;;;;9.57;5.03;;;9.10;99.90;;;;;;5013360;28;20392;-61
2020/12/20 01:42:14;;;;;;;11.18;5.57;;;9.10;99.90;;;;;;5022738;28;20029;-60
2020/12/20 01:44:40;;;;;;;17.35;6.35;;;9.10;99.90;;;;;;5024787;28;20026;-61
2020/12/20 01:47:07;;;;;;;10.88;5.57;;;9.00;99.90;;;;;;5029722;28;20033;-61
2020/12/20 01:49:33;;;;;;;8.88;5.60;;;9.00;99.90;;;;;;5032295;28;20064;-61
2020/12/20 01:52:00;;;;;;;8.75;5.43;;;9.00;99.90;;;;;;5027295;28;20048;-61
2020/12/20 01:54:26;;;;;;;9.48;5.85;;;9.00;99.90;;;;;;5041525;28;20037;-62
2020/12/20 01:56:52;;;;;;;16.50;5.30;;;9.00;99.90;;;;;;5030657;28;20138;-60
2020/12/20 01:59:18;;;;;;;12.38;6.03;;;9.00;99.90;;;;;;5024330;28;20057;-63
2020/12/20 02:01:43;;;;;;;8.63;5.82;;;9.00;99.90;;;;;;5030971;28;20107;-61
2020/12/20 02:04:09;;;;;;;8.98;6.20;;;8.90;99.90;;;;;;5020058;28;20025;-62
2020/12/20 02:06:36;;;;;;;11.45;6.22;;;9.00;99.90;;;;;;5026946;28;20037;-62
2020/12/20 02:09:01;;;;;;;9.65;6.15;;;9.00;99.90;;;;;;5025705;28;20032;-61
2020/12/20 02:11:27;;;;;;;8.70;6.18;;;8.90;99.90;;;;;;5030997;28;20025;-59
2020/12/20 02:13:52;;;;;;;8.82;5.88;;;8.90;99.90;;;;;;5020155;28;20510;-62
2020/12/20 02:16:20;;;;;;;14.63;5.93;;;8.90;99.90;;;;;;5029247;28;20042;-61
2020/12/20 02:18:46;;;;;;;10.25;5.80;;;9.00;99.90;;;;;;5024471;28;20025;-61
2020/12/20 02:21:18;;;;;;;10.52;5.25;;;9.00;99.90;;;;;;5032859;28;20013;-61
2020/12/20 02:23:47;;;;;;;12.23;6.30;;;8.90;99.90;;;;;;5023425;28;20033;-63
2020/12/20 02:26:14;;;;;;;9.73;6.32;;;8.90;99.90;;;;;;5017986;28;20021;-63
2020/12/20 02:28:39;;;;;;;8.68;5.90;;;8.90;99.90;;;;;;5025032;28;20025;-62
2020/12/20 02:31:05;;;;;;;8.27;5.47;;;8.90;99.90;;;;;;5033515;28;20477;-61
2020/12/20 02:33:32;;;;;;;14.00;6.88;;;8.90;99.90;;;;;;5036204;28;20856;-61
2020/12/20 02:35:58;;;;;;;11.18;6.63;;;8.80;99.90;;;;;;5034861;28;20032;-61
2020/12/20 02:38:23;;;;;;;9.35;5.47;;;8.80;99.90;;;;;;5036536;28;20025;-61
2020/12/20 02:40:49;;;;;;;11.82;6.10;;;8.80;99.90;;;;;;5036800;28;20409;-63
2020/12/20 02:43:15;;;;;;;9.13;6.30;;;8.80;99.90;;;;;;5037060;28;20095;-62
2020/12/20 02:45:40;;;;;;;8.43;5.78;;;8.80;99.90;;;;;;5033154;28;20037;-61
2020/12/20 02:48:06;;;;;;;10.75;6.57;;;8.70;99.90;;;;;;5035813;28;20024;-60
2020/12/20 02:50:31;;;;;;;8.82;6.15;;;8.70;99.90;;;;;;5038560;28;20029;-62
2020/12/20 02:52:57;;;;;;;13.40;6.53;;;8.70;99.90;;;;;;5036586;28;20048;-62
2020/12/20 02:55:22;;;;;;;10.02;5.93;;;8.70;99.90;;;;;;5034919;28;20036;-63
2020/12/20 02:57:48;;;;;;;11.57;6.90;;;8.70;99.90;;;;;;5037290;28;20032;-63
2020/12/20 03:00:13;;;;;;;8.35;6.10;;;8.70;99.90;;;;;;5038805;28;20603;-61
2020/12/20 03:02:39;;;;;;;14.45;5.72;;;8.70;99.90;;;;;;5035632;28;20398;-63
2020/12/20 03:05:04;;;;;;;10.68;6.45;;;8.60;99.90;;;;;;5018805;28;20041;-61
2020/12/20 03:07:30;;;;;;;10.73;6.43;;;8.60;99.90;;;;;;5014150;28;20115;-61
2020/12/20 03:09:55;;;;;;;11.43;6.15;;;8.50;99.90;;;;;;5015616;28;20049;-62
2020/12/20 03:12:24;;;;;;;7.68;5.40;;;8.60;99.90;;;;;;5011382;28;20203;-62
2020/12/20 03:14:49;;;;;;;9.10;6.00;;;8.50;99.90;;;;;;4996118;28;20099;-61
2020/12/20 03:17:15;;;;;;;11.55;6.32;;;8.50;99.90;;;;;;5024520;28;20025;-62
2020/12/20 03:19:41;;;;;;;10.98;5.97;;;8.60;99.90;;;;;;5014183;28;20049;-62
2020/12/20 03:22:06;;;;;;;12.10;5.93;;;8.60;99.90;;;;;;5012055;28;20084;-62
2020/12/20 03:24:32;;;;;;;12.10;5.85;;;8.60;99.90;;;;;;5011115;28;20364;-62
2020/12/20 03:26:57;;;;;;;9.10;6.10;;;8.60;99.90;;;;;;5022211;28;20025;-62
2020/12/20 03:29:23;;;;;;;12.07;6.35;;;8.70;99.90;;;;;;5014892;28;20033;-61
2020/12/20 03:31:48;;;;;;;9.77;6.35;;;8.70;99.90;;;;;;5011202;28;20030;-63
2020/12/20 03:34:14;;;;;;;9.60;5.30;;;8.70;99.90;;;;;;5014066;28;20729;-61
2020/12/20 03:36:39;;;;;;;9.15;4.85;;;8.70;99.90;;;;;;5010870;28;20056;-63
2020/12/20 03:39:05;;;;;;;10.77;6.00;;;8.70;99.90;;;;;;5016361;28;20039;-60
2020/12/20 03:41:31;;;;;;;10.73;5.88;;;8.70;99.90;;;;;;5011736;28;20029;-61
2020/12/20 03:43:56;;;;;;;11.27;6.32;;;8.60;99.90;;;;;;5011392;28;20026;-61
2020/12/20 03:46:22;;;;;;;10.93;6.38;;;8.60;99.90;;;;;;5016474;28;20045;-61
2020/12/20 03:48:47;;;;;;;9.70;6.35;;;8.60;99.90;;;;;;5011678;28;20083;-60
2020/12/20 03:51:13;;;;;;;10.65;5.70;;;8.60;99.90;;;;;;5007160;28;20117;-60
2020/12/20 03:53:39;;;;;;;10.10;5.43;;;8.60;99.90;;;;;;5010068;28;20120;-61
2020/12/20 03:56:08;;;;;;;9.88;5.72;;;8.60;99.90;;;;;;5010814;28;20034;-60
2020/12/20 03:58:33;;;;;;;11.85;6.25;;;8.60;99.90;;;;;;5015006;28;20034;-60
2020/12/20 04:00:59;;;;;;;8.90;6.45;;;8.60;99.90;;;;;;5013041;28;20103;-61
2020/12/20 04:03:24;;;;;;;9.65;5.72;;;8.60;99.90;;;;;;5014848;28;20045;-61
2020/12/20 04:05:50;;;;;;;8.63;6.63;;;8.60;99.90;;;;;;5015926;28;20037;-60
2020/12/20 04:08:15;;;;;;;9.98;6.22;;;8.70;99.90;;;;;;5010938;28;20026;-59
2020/12/20 04:10:41;;;;;;;10.63;5.78;;;8.70;99.90;;;;;;5018036;28;20072;-61
2020/12/20 04:13:06;;;;;;;11.15;5.60;;;8.70;99.90;;;;;;4993839;28;20033;-61
2020/12/20 04:15:35;;;;;;;7.97;5.90;;;8.70;99.90;;;;;;5006796;28;20037;-60
2020/12/20 04:18:00;;;;;;;14.13;6.57;;;8.70;99.90;;;;;;5016142;28;20400;-61
2020/12/20 04:20:26;;;;;;;8.52;5.53;;;8.80;99.90;;;;;;5016135;28;20037;-61
2020/12/20 04:22:52;;;;;;;10.00;6.00;;;8.80;99.90;;;;;;5016649;28;20065;-60
2020/12/20 04:25:17;;;;;;;8.70;5.88;;;8.80;99.90;;;;;;5012283;28;20120;-62
2020/12/20 04:27:43;;;;;;;8.07;5.22;;;8.80;99.90;;;;;;5016988;28;20113;-61
2020/12/20 04:30:08;;;;;;;8.32;6.00;;;8.80;99.90;;;;;;5027951;28;20135;-61
2020/12/20 04:32:34;;;;;;;8.30;6.00;;;8.80;99.90;;;;;;5014578;28;20041;-62
2020/12/20 04:34:59;;;;;;;9.82;6.93;;;8.80;99.90;;;;;;5019756;28;20037;-60
2020/12/20 04:37:25;;;;;;;11.70;6.75;;;8.80;99.90;;;;;;5012985;28;20022;-63
2020/12/20 04:39:50;;;;;;;11.50;6.43;;;8.80;99.90;;;;;;5018515;28;20025;-61
2020/12/20 04:42:16;;;;;;;9.88;7.35;;;8.80;99.90;;;;;;5018890;28;20499;-62
2020/12/20 04:44:42;;;;;;;9.65;6.90;;;8.80;99.90;;;;;;5016049;28;20830;-60
2020/12/20 04:47:09;;;;;;;9.68;6.60;;;8.70;99.90;;;;;;5014575;28;20053;-61
2020/12/20 04:49:35;;;;;;;10.98;6.95;;;8.70;99.90;;;;;;5014540;28;20040;-60
2020/12/20 04:52:02;;;;;;;12.25;6.43;;;8.70;99.90;;;;;;5015846;28;20063;-62
2020/12/20 04:54:29;;;;;;;8.75;6.25;;;8.70;99.90;;;;;;5013986;28;20384;-60
2020/12/20 04:56:55;;;;;;;10.35;6.60;;;8.70;99.90;;;;;;5015880;28;20034;-62
2020/12/20 04:59:20;;;;;;;10.20;6.47;;;8.70;99.90;;;;;;5015863;28;20060;-60
2020/12/20 05:01:46;;;;;;;9.15;6.40;;;8.70;99.90;;;;;;5018547;28;20050;-61
2020/12/20 05:04:12;;;;;;;9.57;6.85;;;8.70;99.90;;;;;;5014045;28;20041;-60
2020/12/20 05:06:37;;;;;;;10.30;6.65;;;8.70;99.90;;;;;;5013614;28;20037;-60
2020/12/20 05:09:04;;;;;;;9.30;6.97;;;8.60;99.90;;;;;;5016295;28;20041;-60
2020/12/20 05:11:39;;;;;;;11.88;6.82;;;8.60;99.90;;;;;;5020081;28;20030;-62
2020/12/20 05:14:06;;;;;;;8.93;6.68;;;8.70;99.90;;;;;;5000714;28;20523;-62
2020/12/20 05:16:37;;;;;;;11.73;7.68;;;8.70;99.90;;;;;;5015515;28;20075;-62
2020/12/20 05:19:05;;;;;;;9.50;7.38;;;8.70;99.90;;;;;;5012990;28;20034;-63
2020/12/20 05:21:31;;;;;;;12.30;7.43;;;8.60;99.90;;;;;;5019291;28;20031;-61
2020/12/20 05:23:58;;;;;;;11.25;7.30;;;8.60;99.90;;;;;;5019566;28;20589;-63
2020/12/20 05:26:28;;;;;;;12.40;7.13;;;8.60;99.90;;;;;;5012893;28;20052;-60
2020/12/20 05:29:09;;;;;;;16.75;7.65;;;8.60;99.90;;;;;;5012616;28;20029;-61
2020/12/20 05:31:35;;;;;;;13.80;8.00;;;8.60;99.90;;;;;;5017042;28;20542;-63
2020/12/20 05:34:02;;;;;;;15.27;7.57;;;8.60;99.90;;;;;;5011521;28;20056;-63
2020/12/20 05:36:28;;;;;;;9.70;7.20;;;8.60;99.90;;;;;;5013676;28;20459;-63
2020/12/20 05:38:54;;;;;;;13.80;8.18;;;8.50;99.90;;;;;;5011317;28;20026;-61
2020/12/20 05:41:30;;;;;;;11.25;7.55;;;8.50;99.90;;;;;;5012578;28;20428;-62
2020/12/20 05:44:16;;;;;;;14.10;8.55;;;8.50;99.90;;;;;;5011830;28;20033;-62
2020/12/20 05:46:43;;;;;;;14.98;8.52;;;8.50;99.90;;;;;;5014895;28;20554;-62
2020/12/20 05:49:19;;;;;;;11.77;8.13;;;8.50;99.90;;;;;;5019130;28;20041;-62
2020/12/20 05:52:00;;;;;;;16.52;8.00;;;8.50;99.90;;;;;;5016216;28;20021;-61
2020/12/20 05:54:30;;;;;;;10.45;8.18;;;8.40;99.90;;;;;;5018333;28;20083;-63
2020/12/20 05:57:25;;;;;;;13.73;9.25;;;8.40;99.90;;;;;;5011150;28;20030;-62
2020/12/20 05:59:53;;;;;;;17.27;9.40;;;8.40;99.90;;;;;;5007154;28;20091;-63
2020/12/20 06:02:19;;;;;;;14.38;9.25;;;8.30;99.90;;;;;;5017211;28;20029;-63
2020/12/20 06:04:47;;;;;;;14.95;8.43;;;8.30;99.90;;;;;;5016276;28;20048;-63
2020/12/20 06:07:14;;;;;;;15.02;9.25;;;8.30;99.90;;;;;;5015494;28;20030;-63
2020/12/20 06:10:10;;;;;;;17.08;9.68;;;8.30;99.90;;;;;;5015671;28;20750;-63
2020/12/20 06:12:38;;;;;;;14.48;9.20;;;8.20;99.90;;;;;;5005570;28;20052;-62
2020/12/20 06:15:08;;;;;;;14.77;8.40;;;8.20;99.90;;;;;;4997730;28;20111;-62
2020/12/20 06:17:43;;;;;;;18.15;8.73;;;8.20;99.90;;;;;;5011147;28;20105;-63
2020/12/20 06:20:26;;;;;;;15.40;9.95;;;8.20;99.90;;;;;;5015326;28;20451;-61
2020/12/20 06:22:53;;;;;;;12.18;8.45;;;8.10;99.90;;;;;;5016429;28;20033;-62
2020/12/20 06:25:29;;;;;;;13.50;9.07;;;8.00;99.90;;;;;;5013786;28;20032;-62
2020/12/20 06:28:04;;;;;;;14.98;9.32;;;8.00;99.90;;;;;;5015204;28;20132;-61
2020/12/20 06:30:30;;;;;;;15.07;9.95;;;8.00;99.90;;;;;;5020963;28;20033;-63
2020/12/20 06:33:01;;;;;;;18.10;10.05;;;8.00;99.90;;;;;;5034122;28;20025;-63
2020/12/20 06:35:31;;;;;;;18.48;9.45;;;8.00;99.90;;;;;;5015252;28;20037;-61
2020/12/20 06:37:57;;;;;;;14.02;10.25;;;8.00;99.90;;;;;;5010845;28;20021;-62
2020/12/20 06:40:28;;;;;;;14.82;10.55;;;8.00;99.90;;;;;;5013431;28;20559;-63
2020/12/20 06:42:54;;;;;;;13.93;9.43;;;8.00;99.90;;;;;;5010077;28;20080;-60
2020/12/20 06:45:21;;;;;;;17.35;9.95;;;8.00;99.90;;;;;;5011623;28;20057;-62
2020/12/20 06:47:59;;;;;;;15.25;9.93;;;8.00;99.90;;;;;;5012026;28;20037;-61
2020/12/20 06:50:44;;;;;;;16.92;10.30;;;8.00;99.90;;;;;;5015001;28;20037;-61
2020/12/20 06:53:11;;;;;;;18.75;10.23;;;8.00;99.90;;;;;;5012475;28;20767;-61
2020/12/20 06:55:37;;;;;;;16.05;11.07;;;8.00;99.90;;;;;;5015467;28;20030;-62
2020/12/20 06:58:03;;;;;;;18.40;10.75;;;8.00;99.90;;;;;;5010608;28;20021;-59
2020/12/20 07:00:54;;;;;;;20.35;11.00;;;8.00;99.90;;;;;;5011411;28;20526;-61
2020/12/20 07:03:23;;;;;;;18.20;11.02;;;8.00;99.90;;;;;;5011051;28;20048;-62
2020/12/20 07:05:50;;;;;;;15.43;10.55;;;8.00;99.90;;;;;;5013686;28;20079;-61
2020/12/20 07:08:21;;;;;;;16.10;11.65;;;8.10;99.90;;;;;;5012197;28;20036;-62
2020/12/20 07:10:48;;;;;;;18.80;11.27;;;8.10;99.90;;;;;;5011362;28;20029;-62
2020/12/20 07:13:16;;;;;;;17.52;11.07;;;8.10;99.90;;;;;;5009734;28;20049;-61
2020/12/20 07:15:49;;;;;;;14.73;10.75;;;8.10;99.90;;;;;;5003291;28;20041;-63
2020/12/20 07:18:38;;;;;;;17.20;11.52;;;8.10;99.90;;;;;;5014261;28;20033;-62
2020/12/20 07:21:03;;;;;;;17.35;12.00;;;8.10;99.90;;;;;;5011573;28;20097;-62
2020/12/20 07:23:29;;;;;;;48.97;28.75;;;8.10;99.90;;;;;;5016748;28;20037;-62
2020/12/20 07:25:56;;;;;;;20.65;14.35;;;8.00;99.90;;;;;;5012042;28;20729;-62
2020/12/20 07:28:22;;;;;;;19.77;13.95;;;8.00;99.90;;;;;;5010126;28;20032;-63
2020/12/20 07:30:48;;;;;;;19.50;12.48;;;7.90;99.90;;;;;;5014837;28;20037;-61
2020/12/20 07:33:16;;;;;;;19.95;12.57;;;7.90;99.90;;;;;;5018880;28;20475;-64
2020/12/20 07:35:46;;;;;;;20.65;13.60;;;7.90;99.90;;;;;;5015878;28;20120;-61
2020/12/20 07:38:13;;;;;;;21.60;14.43;;;7.90;99.90;;;;;;5015789;28;20774;-63
2020/12/20 07:40:39;;;;;;;19.10;14.07;;;7.90;99.90;;;;;;5010163;28;20082;-61
2020/12/20 07:43:05;;;;;;;19.38;12.88;;;7.90;99.90;;;;;;5013633;28;20044;-63
2020/12/20 07:45:30;;;;;;;21.83;13.98;;;7.90;99.90;;;;;;5009926;28;20037;-61
2020/12/20 07:47:56;;;;;;;22.88;13.90;;;7.90;99.90;;;;;;5009682;28;20034;-61
2020/12/20 07:50:23;;;;;;;20.33;13.15;;;7.90;99.90;;;;;;5013381;28;20042;-62
2020/12/20 07:52:49;;;;;;;18.88;13.57;;;7.90;99.90;;;;;;5021874;28;20380;-61
2020/12/20 07:55:15;;;;;;;24.30;13.80;;;7.90;99.90;;;;;;5022670;28;20082;-62
2020/12/20 07:57:45;;;;;;;19.90;13.45;;;7.90;99.90;;;;;;5040928;28;20068;-63
2020/12/20 08:00:11;;;;;;;19.60;14.10;;;7.80;99.90;;;;;;5033536;28;20069;-62
2020/12/20 08:02:38;;;;;;;20.50;14.18;;;7.80;99.90;;;;;;5041673;28;20071;-63
2020/12/20 08:05:12;;;;;;;19.83;12.25;;;7.80;99.90;;;;;;5024980;28;20029;-63
2020/12/20 08:07:38;;;;;;;19.13;12.38;;;7.70;99.90;;;;;;5029453;28;20509;-62
2020/12/20 08:10:05;;;;;;;22.02;14.00;;;7.70;99.90;;;;;;5031763;28;20542;-61
2020/12/20 08:12:32;;;;;;;21.92;14.90;;;7.70;99.90;;;;;;5022836;28;20033;-62
2020/12/20 08:15:08;;;;;;;19.52;14.02;;;7.70;99.90;;;;;;5015437;28;20133;-61
2020/12/20 08:17:37;;;;;;;20.55;15.18;;;7.70;99.90;;;;;;5032934;28;20075;-62
2020/12/20 08:20:04;;;;;;;21.83;15.32;;;7.70;99.90;;;;;;5030393;28;20029;-62
2020/12/20 08:22:32;;;;;;;24.17;14.95;;;7.70;99.90;;;;;;5033481;28;20021;-62
2020/12/20 08:25:06;;;;;;;24.48;15.23;;;7.70;99.90;;;;;;5037989;28;20025;-62
2020/12/20 08:27:32;;;;;;;22.83;14.02;;;7.70;99.90;;;;;;5026588;28;20517;-62
2020/12/20 08:30:00;;;;;;;19.75;13.60;;;7.70;99.90;;;;;;5032432;28;20480;-61
2020/12/20 08:32:34;;;;;;;22.15;13.82;;;7.80;99.90;;;;;;5029254;28;20064;-59
2020/12/20 08:35:21;;;;;;;20.40;13.82;;;7.80;99.90;;;;;;5029028;28;20513;-62
2020/12/20 08:37:53;;;;;;;18.88;13.60;;;7.80;99.90;;;;;;5029754;28;20041;-61
2020/12/20 08:40:19;;;;;;;21.80;14.45;;;7.90;99.90;;;;;;5038410;28;20033;-62
2020/12/20 08:42:51;;;;;;;19.95;14.52;;;8.00;99.90;;;;;;5035779;28;20021;-62
2020/12/20 08:45:22;;;;;;;21.30;14.73;;;8.00;99.90;;;;;;5040385;28;20519;-62
2020/12/20 08:47:51;;;;;;;23.42;15.75;;;8.10;99.90;;;;;;5035362;28;20033;-63
2020/12/20 08:50:24;;;;;;;22.40;13.52;;;8.20;99.90;;;;;;5039263;28;20036;-63
2020/12/20 08:53:04;;;;;;;17.40;12.75;;;8.30;99.90;;;;;;5038625;28;20032;-62
2020/12/20 08:55:30;;;;;;;18.13;11.82;;;8.30;99.90;;;;;;5041243;28;20041;-62
2020/12/20 08:58:07;;;;;;;17.45;11.82;;;8.40;99.90;;;;;;5027818;28;20030;-62
2020/12/20 09:00:35;;;;;;;18.35;11.55;;;8.40;99.90;;;;;;5044256;28;20021;-63
2020/12/20 09:03:01;;;;;;;16.25;11.93;;;8.50;99.90;;;;;;5034313;28;20398;-60
2020/12/20 09:05:29;;;;;;;19.92;13.40;;;8.50;99.90;;;;;;5028647;28;20037;-62
2020/12/20 09:07:57;;;;;;;24.23;15.35;;;8.50;99.90;;;;;;5033902;28;20064;-62
2020/12/20 09:10:28;;;;;;;27.52;15.82;;;8.50;99.90;;;;;;5030931;28;20464;-61
2020/12/20 09:13:11;;;;;;;20.13;13.98;;;8.60;99.90;;;;;;5029458;28;20383;-60
2020/12/20 09:15:39;;;;;;;21.47;15.63;;;8.60;99.90;;;;;;5020327;28;20132;-63
2020/12/20 09:18:20;;;;;;;19.55;14.68;;;8.70;99.90;;;;;;5036580;28;21017;-63
2020/12/20 09:20:46;;;;;;;23.02;15.38;;;8.80;99.90;;;;;;5034612;28;20021;-60
2020/12/20 09:23:20;;;;;;;15.57;12.20;;;8.90;99.90;;;;;;5025912;28;20080;-62
2020/12/20 09:25:46;;;;;;;16.92;11.73;;;9.00;99.90;;;;;;5028311;28;20108;-62
2020/12/20 09:28:18;;;;;;;16.15;11.52;;;9.10;99.90;;;;;;5019203;28;20507;-62
2020/12/20 09:30:46;;;;;;;17.63;11.82;;;9.10;99.90;;;;;;5030586;28;20082;-60
2020/12/20 09:33:27;;;;;;;15.85;10.63;;;9.20;99.90;;;;;;5028807;28;20397;-60
2020/12/20 09:35:52;;;;;;;14.77;10.48;;;9.20;99.90;;;;;;5024153;28;20018;-63
2020/12/20 09:38:18;;;;;;;14.02;10.23;;;9.30;99.90;;;;;;5039784;28;20028;-62
2020/12/20 09:40:44;;;;;;;15.32;10.43;;;9.40;99.90;;;;;;5025609;28;20562;-63
2020/12/20 09:43:16;;;;;;;15.73;11.35;;;9.40;99.90;;;;;;5037338;28;20406;-62
2020/12/20 09:45:41;;;;;;;12.38;9.23;;;9.40;99.90;;;;;;5039268;28;20399;-61
2020/12/20 09:48:07;;;;;;;18.25;10.73;;;9.50;99.90;;;;;;5033912;28;20055;-62
2020/12/20 09:50:32;;;;;;;13.18;9.85;;;9.50;99.90;;;;;;5035342;28;20095;-63
2020/12/20 09:52:58;;;;;;;16.02;10.02;;;9.50;99.90;;;;;;5036077;28;20033;-61
2020/12/20 09:55:24;;;;;;;16.05;10.15;;;9.50;99.90;;;;;;5036751;28;20082;-63
2020/12/20 09:57:49;;;;;;;18.80;10.80;;;9.50;99.90;;;;;;5029381;28;20136;-62
2020/12/20 10:00:15;;;;;;;14.00;9.95;;;9.50;99.90;;;;;;5027343;28;20044;-62
2020/12/20 10:02:40;;;;;;;15.15;9.85;;;9.50;99.90;;;;;;5037227;28;20053;-60
2020/12/20 10:05:06;;;;;;;14.63;9.60;;;9.60;99.90;;;;;;5035792;28;20029;-62
2020/12/20 10:07:31;;;;;;;17.42;9.60;;;9.70;99.90;;;;;;5031393;28;20044;-62
2020/12/20 10:09:57;;;;;;;14.23;9.70;;;9.70;99.90;;;;;;5037145;28;20037;-61
2020/12/20 10:12:22;;;;;;;13.00;9.13;;;9.80;99.90;;;;;;5028000;28;20033;-61
2020/12/20 10:14:48;;;;;;;13.05;9.30;;;9.80;99.90;;;;;;5015289;28;20042;-62
2020/12/20 10:17:13;;;;;;;14.95;9.02;;;9.90;99.90;;;;;;5033276;28;20006;-61
2020/12/20 10:19:39;;;;;;;15.88;8.68;;;9.90;99.90;;;;;;5032129;28;20486;-62
2020/12/20 10:22:04;;;;;;;14.30;9.32;;;9.90;99.90;;;;;;5023041;28;20047;-62
2020/12/20 10:24:30;;;;;;;12.73;8.85;;;9.90;99.90;;;;;;5025037;28;20040;-62
2020/12/20 10:26:55;;;;;;;15.90;8.98;;;10.00;99.90;;;;;;5027419;28;20022;-61
2020/12/20 10:29:21;;;;;;;13.52;9.23;;;10.00;99.90;;;;;;5025620;28;20109;-62
2020/12/20 10:31:46;;;;;;;15.57;9.40;;;10.10;99.90;;;;;;5017478;28;20445;-62
2020/12/20 10:34:13;;;;;;;18.23;8.75;;;10.20;99.90;;;;;;5031221;28;20418;-61
2020/12/20 10:36:39;;;;;;;14.93;10.23;;;10.20;99.90;;;;;;5030044;28;20112;-61
2020/12/20 10:39:06;;;;;;;22.45;12.95;;;10.30;99.90;;;;;;5032329;28;20063;-61
2020/12/20 10:41:39;;;;;;;15.02;10.57;;;10.30;99.90;;;;;;5027891;28;20025;-62
2020/12/20 10:44:06;;;;;;;14.10;8.63;;;10.30;99.90;;;;;;5028255;28;20056;-61
2020/12/20 10:46:33;;;;;;;12.65;8.73;;;10.40;99.90;;;;;;5036636;28;20060;-60
2020/12/20 10:48:59;;;;;;;15.00;8.40;;;10.50;99.90;;;;;;5028504;28;20101;-61
2020/12/20 10:51:25;;;;;;;12.60;7.75;;;10.50;99.90;;;;;;5025491;28;20048;-62
2020/12/20 10:53:51;;;;;;;10.25;8.02;;;10.50;99.90;;;;;;5036804;28;20423;-63
2020/12/20 10:56:18;;;;;;;13.73;8.60;;;10.50;99.90;;;;;;5035801;28;20025;-61
2020/12/20 10:58:45;;;;;;;12.75;7.63;;;10.50;99.90;;;;;;5016599;28;20010;-63
2020/12/20 11:01:14;;;;;;;14.55;8.45;;;10.60;99.90;;;;;;5034510;28;20053;-62
2020/12/20 11:03:42;;;;;;;9.40;6.72;;;10.60;99.90;;;;;;5026172;28;20025;-61
2020/12/20 11:06:07;;;;;;;14.40;8.10;;;10.60;99.90;;;;;;5025367;28;20026;-62
2020/12/20 11:08:33;;;;;;;10.85;7.53;;;10.50;99.90;;;;;;5024717;28;20022;-61
2020/12/20 11:10:58;;;;;;;15.00;8.32;;;10.50;99.90;;;;;;5026887;28;20021;-62
2020/12/20 11:13:24;;;;;;;15.65;9.38;;;10.60;99.90;;;;;;5033189;28;20491;-62
2020/12/20 11:15:49;;;;;;;18.73;8.38;;;10.50;99.90;;;;;;5019886;28;20517;-63
2020/12/20 11:18:15;;;;;;;12.77;8.07;;;10.60;99.90;;;;;;5009723;28;20034;-62
2020/12/20 11:20:40;;;;;;;11.55;7.85;;;10.60;99.90;;;;;;5014255;28;20033;-61
2020/12/20 11:23:06;;;;;;;13.82;7.90;;;10.60;99.90;;;;;;5012748;28;20034;-62
2020/12/20 11:25:32;;;;;;;13.98;8.02;;;10.70;99.90;;;;;;5015288;28;20029;-63
2020/12/20 11:27:58;;;;;;;11.05;7.30;;;10.70;99.90;;;;;;5014426;28;20030;-62
2020/12/20 11:30:23;;;;;;;10.18;6.75;;;10.80;99.90;;;;;;5011667;28;20037;-63
2020/12/20 11:32:49;;;;;;;13.25;7.15;;;10.90;99.90;;;;;;5017230;28;20515;-63
2020/12/20 11:35:16;;;;;;;14.00;7.45;;;10.80;99.90;;;;;;5023485;28;20480;-62
2020/12/20 11:37:43;;;;;;;10.63;7.28;;;10.90;99.90;;;;;;5021763;28;20038;-63
2020/12/20 11:40:08;;;;;;;9.40;6.80;;;10.90;99.90;;;;;;5017264;28;20132;-61
2020/12/20 11:42:34;;;;;;;15.27;7.95;;;10.90;99.90;;;;;;5025209;28;20504;-62
2020/12/20 11:44:59;;;;;;;12.15;6.93;;;10.90;99.90;;;;;;5021404;28;20042;-62
2020/12/20 11:47:25;;;;;;;9.60;6.60;;;10.90;99.90;;;;;;5024941;28;20037;-63
2020/12/20 11:49:51;;;;;;;12.38;6.60;;;10.90;99.90;;;;;;5021624;28;20033;-62
2020/12/20 11:52:16;;;;;;;12.70;6.90;;;11.00;99.90;;;;;;5022220;28;20021;-62
2020/12/20 11:54:42;;;;;;;9.77;6.30;;;10.90;99.90;;;;;;5020185;28;20098;-64
2020/12/20 11:57:07;;;;;;;13.68;6.63;;;10.90;99.90;;;;;;5014340;28;20022;-62
2020/12/20 11:59:33;;;;;;;12.45;7.45;;;10.90;99.90;;;;;;5027800;28;20502;-63
2020/12/20 12:02:01;;;;;;;10.48;6.80;;;10.80;99.90;;;;;;5021603;28;20064;-63
2020/12/20 12:04:27;;;;;;;11.45;7.47;;;10.90;99.90;;;;;;5031852;28;20033;-62
2020/12/20 12:06:53;;;;;;;13.32;7.22;;;10.80;99.90;;;;;;5014309;28;20038;-63
2020/12/20 12:09:19;;;;;;;13.25;8.18;;;10.80;99.90;;;;;;5024662;28;20143;-62
2020/12/20 12:11:45;;;;;;;11.27;6.20;;;10.80;99.90;;;;;;5024270;28;20113;-63
2020/12/20 12:14:10;;;;;;;11.45;5.70;;;10.80;99.90;;;;;;5014638;28;20040;-62
2020/12/20 12:16:36;;;;;;;11.48;6.65;;;10.80;99.90;;;;;;5014517;28;20049;-63
2020/12/20 12:19:02;;;;;;;13.20;5.95;;;10.80;99.90;;;;;;5028211;28;20077;-62
2020/12/20 12:21:27;;;;;;;10.30;6.45;;;10.90;99.90;;;;;;5023294;28;20025;-63
2020/12/20 12:23:53;;;;;;;13.00;6.30;;;10.80;99.90;;;;;;5024291;28;20448;-63
2020/12/20 12:26:18;;;;;;;14.13;6.68;;;10.90;99.90;;;;;;5025985;28;20551;-62
2020/12/20 12:28:44;;;;;;;11.07;6.25;;;10.90;99.90;;;;;;5035530;28;20552;-61
2020/12/20 12:31:09;;;;;;;14.38;7.22;;;10.80;99.90;;;;;;5027737;28;20104;-63
2020/12/20 12:33:35;;;;;;;12.52;7.93;;;10.80;99.90;;;;;;5025318;28;20037;-61
2020/12/20 12:36:03;;;;;;;12.38;6.72;;;10.70;99.90;;;;;;5025882;28;20021;-63
2020/12/20 12:38:28;;;;;;;10.35;7.57;;;10.70;99.90;;;;;;5038130;28;20123;-63
2020/12/20 12:40:54;;;;;;;12.10;6.93;;;10.80;99.90;;;;;;5037883;28;20033;-63
2020/12/20 12:43:20;;;;;;;13.18;6.72;;;10.80;99.90;;;;;;5018480;28;20033;-63
2020/12/20 12:45:45;;;;;;;10.82;5.88;;;10.80;99.90;;;;;;5035821;28;20079;-61
2020/12/20 12:48:11;;;;;;;12.45;7.38;;;10.70;99.90;;;;;;5025957;28;20028;-63